createdAt,value
2023-04-14T00:02:42.811Z,99789.84
2023-04-14T00:05:32.478Z,99789.03
2023-04-14T00:08:17.824Z,99799.34
2023-04-14T00:11:03.197Z,99795.06
2023-04-14T00:13:48.486Z,99792.50
2023-04-14T00:16:34.002Z,99790.78
2023-04-14T00:19:19.330Z,99792.53
2023-04-14T00:22:04.669Z,99795.16
2023-04-14T00:24:50.935Z,99786.56
2023-04-14T00:27:36.487Z,99789.16
2023-04-14T00:30:21.891Z,99791.75
2023-04-14T00:33:07.254Z,99783.16
2023-04-14T00:35:52.535Z,99785.69
2023-04-14T00:38:38.038Z,99785.63
2023-04-14T00:41:24.875Z,99792.53
2023-04-14T00:44:10.151Z,99784.78
2023-04-14T00:46:57.236Z,99792.50
2023-04-14T00:49:42.607Z,99788.13
2023-04-14T00:52:28.176Z,99786.25
2023-04-14T00:55:15.913Z,99786.09
2023-04-14T00:58:02.102Z,99787.59
2023-04-14T01:00:53.963Z,99788.31
2023-04-14T01:03:39.592Z,99777.81
2023-04-14T01:06:26.986Z,99771.56
2023-04-14T01:09:12.691Z,99782.66
2023-04-14T01:12:24.361Z,99768.75
2023-04-14T01:15:52.440Z,99779.81
2023-04-14T01:18:53.623Z,99778.94
2023-04-14T01:21:43.933Z,99778.88
2023-04-14T01:25:13.897Z,99777.94
2023-04-14T01:28:10.896Z,99776.13
2023-04-14T01:31:02.578Z,99776.97
2023-04-14T01:34:11.918Z,99777.88
2023-04-14T01:37:04.182Z,99783.06
2023-04-14T01:39:52.544Z,99785.63
2023-04-14T01:42:46.619Z,99782.06
2023-04-14T01:45:41.997Z,99781.09
2023-04-14T01:48:28.895Z,99784.47
2023-04-14T01:51:19.452Z,99785.22
2023-04-14T01:54:09.509Z,99785.09
2023-04-14T01:56:57.163Z,99775.41
2023-04-14T01:59:45.495Z,99773.50
2023-04-14T02:02:33.252Z,99769.81
2023-04-14T02:05:22.671Z,99763.66
2023-04-14T02:08:12.784Z,99769.63
2023-04-14T02:11:01.034Z,99767.78
2023-04-14T02:13:50.098Z,99772.84
2023-04-14T02:16:38.309Z,99777.13
2023-04-14T02:19:25.510Z,99775.25
2023-04-14T02:22:11.290Z,99766.47
2023-04-14T02:24:57.058Z,99767.94
2023-04-14T02:28:01.214Z,99767.28
2023-04-14T02:30:51.821Z,99772.53
2023-04-14T02:33:39.565Z,99772.53
2023-04-14T02:36:34.367Z,99775.06
2023-04-14T02:39:26.309Z,99775.19
2023-04-14T02:42:15.602Z,99770.13
2023-04-14T02:45:05.474Z,99770.13
2023-04-14T02:47:55.534Z,99773.44
2023-04-14T02:50:49.092Z,99773.34
2023-04-14T02:53:37.764Z,99774.13
2023-04-14T02:56:35.787Z,99775.06
2023-04-14T02:59:22.296Z,99772.63
2023-04-14T03:02:17.806Z,99765.78
2023-04-14T03:05:09.590Z,99767.63
2023-04-14T03:08:18.700Z,99764.28
2023-04-14T03:11:08.363Z,99758.31
2023-04-14T03:13:56.575Z,99761.75
2023-04-14T03:16:43.827Z,99764.31
2023-04-14T03:19:32.014Z,99771.16
2023-04-14T03:22:20.845Z,99765.16
2023-04-14T03:25:09.309Z,99763.38
2023-04-14T03:27:59.575Z,99764.38
2023-04-14T03:30:51.632Z,99765.34
2023-04-14T03:33:39.480Z,99766.50
2023-04-14T03:36:31.370Z,99770.19
2023-04-14T03:39:20.368Z,99764.34
2023-04-14T03:42:08.399Z,99771.31
2023-04-14T03:44:56.306Z,99766.16
2023-04-14T03:47:42.136Z,99761.72
2023-04-14T03:50:31.562Z,99756.31
2023-04-14T03:53:19.529Z,99759.50
2023-04-14T03:56:07.149Z,99760.25
2023-04-14T03:58:56.039Z,99764.34
2023-04-14T04:01:42.752Z,99764.91
2023-04-14T04:04:29.117Z,99757.75
2023-04-14T04:07:17.625Z,99752.44
2023-04-14T04:10:06.779Z,99765.25
2023-04-14T04:12:54.086Z,99761.81
2023-04-14T04:15:41.475Z,99753.16
2023-04-14T04:18:31.957Z,99747.78
2023-04-14T04:21:18.805Z,99744.19
2023-04-14T04:24:06.755Z,99748.25
2023-04-14T04:26:54.445Z,99755.03
2023-04-14T04:29:40.567Z,99754.75
2023-04-14T04:32:27.243Z,99749.16
2023-04-14T04:35:13.282Z,99746.31
2023-04-14T04:38:01.938Z,99756.50
2023-04-14T04:40:48.943Z,99761.69
2023-04-14T04:43:42.161Z,99758.97
2023-04-14T04:46:53.831Z,99764.72
2023-04-14T04:49:43.493Z,99761.34
2023-04-14T04:52:28.795Z,99758.72
2023-04-14T04:55:14.011Z,99756.81
2023-04-14T04:57:59.415Z,99755.94
2023-04-14T05:00:44.867Z,99771.50
2023-04-14T05:03:30.254Z,99770.00
2023-04-14T05:06:16.705Z,99772.56
2023-04-14T05:09:02.381Z,99771.53
2023-04-14T05:11:48.304Z,99767.88
2023-04-14T05:14:33.485Z,99765.91
2023-04-14T05:17:19.020Z,99769.47
2023-04-14T05:20:05.801Z,99770.72
2023-04-14T05:22:51.212Z,99782.06
2023-04-14T05:25:36.735Z,99791.66
2023-04-14T05:28:22.378Z,99790.19
2023-04-14T05:31:07.859Z,99791.09
2023-04-14T05:33:53.432Z,99796.88
2023-04-14T05:36:38.797Z,99792.09
2023-04-14T05:39:24.359Z,99795.19
2023-04-14T05:42:09.635Z,99792.38
2023-04-14T05:44:55.225Z,99802.41
2023-04-14T05:47:40.490Z,99807.41
2023-04-14T05:50:26.115Z,99809.06
2023-04-14T05:53:12.766Z,99815.19
2023-04-14T05:55:59.077Z,99821.13
2023-04-14T05:58:44.633Z,99824.56
2023-04-14T06:01:30.077Z,99824.44
2023-04-14T06:04:16.141Z,99826.09
2023-04-14T06:07:03.143Z,99829.47
2023-04-14T06:09:48.546Z,99829.47
2023-04-14T06:12:34.211Z,99832.16
2023-04-14T06:15:19.959Z,99837.31
2023-04-14T06:18:05.685Z,99840.00
2023-04-14T06:20:51.257Z,99850.44
2023-04-14T06:23:36.664Z,99860.00
2023-04-14T06:26:22.506Z,99861.19
2023-04-14T06:29:08.133Z,99865.75
2023-04-14T06:31:54.938Z,99867.66
2023-04-14T06:34:41.383Z,99872.16
2023-04-14T06:37:26.969Z,99868.91
2023-04-14T06:40:12.477Z,99878.78
2023-04-14T06:42:58.026Z,99881.81
2023-04-14T06:45:43.479Z,99896.63
2023-04-14T06:48:29.038Z,99900.25
2023-04-14T06:51:14.585Z,99904.63
2023-04-14T06:54:00.435Z,99901.31
2023-04-14T06:56:46.449Z,99910.97
2023-04-14T06:59:31.979Z,99908.78
2023-04-14T07:02:17.440Z,99917.63
2023-04-14T07:05:03.030Z,99922.41
2023-04-14T07:07:48.604Z,99930.31
2023-04-14T07:10:34.050Z,99924.69
2023-04-14T07:13:19.372Z,99930.66
2023-04-14T07:16:08.707Z,99914.16
2023-04-14T07:18:54.410Z,99908.81
2023-04-14T07:21:39.751Z,99910.50
2023-04-14T07:24:25.549Z,99911.31
2023-04-14T07:27:15.664Z,99919.06
2023-04-14T07:30:01.533Z,99913.06
2023-04-14T07:32:48.160Z,99916.50
2023-04-14T07:35:33.983Z,99919.13
2023-04-14T07:38:20.435Z,99927.03
2023-04-14T07:41:06.886Z,99925.44
2023-04-14T07:43:55.692Z,99923.84
2023-04-14T07:46:41.568Z,99929.34
2023-04-14T07:49:27.123Z,99933.03
2023-04-14T07:52:12.960Z,99935.94
2023-04-14T07:54:58.276Z,99931.00
2023-04-14T07:57:43.593Z,99912.22
2023-04-14T08:00:28.818Z,99914.88
2023-04-14T08:03:14.363Z,99914.06
2023-04-14T08:06:00.029Z,99912.41
2023-04-14T08:08:45.590Z,99900.31
2023-04-14T08:11:31.301Z,99909.84
2023-04-14T08:14:16.687Z,99909.00
2023-04-14T08:17:02.517Z,99918.53
2023-04-14T08:19:47.954Z,99919.47
2023-04-14T08:22:33.252Z,99928.97
2023-04-14T08:25:18.634Z,99922.94
2023-04-14T08:28:04.446Z,99934.19
2023-04-14T08:30:50.441Z,99940.28
2023-04-14T08:33:36.309Z,99938.53
2023-04-14T08:36:22.191Z,99936.84
2023-04-14T08:39:07.979Z,99942.88
2023-04-14T08:41:53.983Z,99937.69
2023-04-14T08:44:39.333Z,99944.59
2023-04-14T08:47:30.781Z,99947.13
2023-04-14T08:50:18.750Z,99947.94
2023-04-14T08:53:08.678Z,99958.31
2023-04-14T08:55:57.993Z,99964.34
2023-04-14T08:58:45.150Z,99967.84
2023-04-14T09:01:32.621Z,99974.75
2023-04-14T09:04:21.234Z,99975.59
2023-04-14T09:07:07.826Z,99980.75
2023-04-14T09:09:53.882Z,99985.03
2023-04-14T09:12:41.994Z,99983.31
2023-04-14T09:15:29.201Z,99991.13
2023-04-14T09:18:14.807Z,99992.88
2023-04-14T09:21:29.984Z,100001.53
2023-04-14T09:24:06.697Z,100005.84
2023-04-14T09:26:53.016Z,100003.22
2023-04-14T09:29:39.144Z,100004.03
2023-04-14T09:32:25.401Z,100008.25
2023-04-14T09:35:13.978Z,100010.81
2023-04-14T09:37:59.598Z,100016.03
2023-04-14T09:40:45.180Z,100020.38
2023-04-14T09:43:30.746Z,100022.94
2023-04-14T09:46:16.505Z,100020.34
2023-04-14T09:49:05.233Z,100025.56
2023-04-14T09:51:54.203Z,100019.47
2023-04-14T09:54:40.295Z,100014.19
2023-04-14T09:57:28.606Z,100021.00
2023-04-14T10:00:18.182Z,100016.59
2023-04-14T10:03:07.182Z,100019.13
2023-04-14T10:05:53.093Z,100012.03
2023-04-14T10:08:41.401Z,100015.41
2023-04-14T10:11:32.902Z,100019.72
2023-04-14T10:14:18.700Z,100027.47
2023-04-14T10:17:04.355Z,100023.97
2023-04-14T10:19:50.236Z,100019.66
2023-04-14T10:22:36.418Z,100022.38
2023-04-14T10:25:21.869Z,100034.47
2023-04-14T10:28:07.786Z,100039.69
2023-04-14T10:30:56.462Z,100044.22
2023-04-14T10:33:42.730Z,100047.69
2023-04-14T10:36:32.734Z,100050.16
2023-04-14T10:39:25.123Z,100058.72
2023-04-14T10:42:10.469Z,100055.88
2023-04-14T10:45:05.910Z,100056.75
2023-04-14T10:47:51.822Z,100060.34
2023-04-14T10:50:48.956Z,100063.72
2023-04-14T10:53:38.037Z,100067.13
2023-04-14T10:56:25.132Z,100071.25
2023-04-14T10:59:10.787Z,100073.78
2023-04-14T11:01:57.423Z,100084.47
2023-04-14T11:05:08.860Z,100082.91
2023-04-14T11:08:03.212Z,100088.34
2023-04-14T11:10:52.352Z,100090.06
2023-04-14T11:13:38.881Z,100089.72
2023-04-14T11:16:29.172Z,100102.34
2023-04-14T11:19:15.570Z,100103.78
2023-04-14T11:22:00.997Z,100121.22
2023-04-14T11:24:46.609Z,100112.88
2023-04-14T11:27:32.775Z,100113.09
2023-04-14T11:30:19.526Z,100121.63
2023-04-14T11:33:05.038Z,100120.44
2023-04-14T11:35:51.363Z,100120.09
2023-04-14T11:38:40.830Z,100131.09
2023-04-14T11:41:26.461Z,100135.50
2023-04-14T11:44:17.915Z,100144.66
2023-04-14T11:47:04.492Z,100138.44
2023-04-14T11:49:49.699Z,100135.78
2023-04-14T11:52:35.133Z,100149.78
2023-04-14T11:55:20.438Z,100150.44
2023-04-14T11:58:05.821Z,100154.28
2023-04-14T12:00:53.642Z,100157.97
2023-04-14T12:03:41.821Z,100162.41
2023-04-14T12:06:27.922Z,100166.34
2023-04-14T12:09:13.330Z,100168.44
2023-04-14T12:11:58.816Z,100170.34
2023-04-14T12:14:46.803Z,100163.94
2023-04-14T12:17:32.778Z,100176.50
2023-04-14T12:20:18.830Z,100177.22
2023-04-14T12:23:04.905Z,100167.47
2023-04-14T12:25:51.551Z,100159.63
2023-04-14T12:28:39.162Z,100172.09
2023-04-14T12:31:30.058Z,100186.09
2023-04-14T12:34:18.204Z,100181.09
2023-04-14T12:37:08.674Z,100187.38
2023-04-14T12:40:00.516Z,100191.19
2023-04-14T12:42:51.714Z,100197.06
2023-04-14T12:45:48.882Z,100197.25
2023-04-14T12:48:47.093Z,100200.63
2023-04-14T12:51:39.420Z,100205.88
2023-04-14T12:54:24.855Z,100205.72
2023-04-14T12:57:10.681Z,100204.69
2023-04-14T12:59:56.348Z,100210.66
2023-04-14T13:02:43.492Z,100206.31
2023-04-14T13:05:30.486Z,100214.16
2023-04-14T13:08:15.954Z,100207.25
2023-04-14T13:11:01.458Z,100213.44
2023-04-14T13:13:47.410Z,100216.03
2023-04-14T13:16:33.507Z,100228.25
2023-04-14T13:19:19.527Z,100237.09
2023-04-14T13:22:04.735Z,100235.25
2023-04-14T13:24:50.290Z,100238.81
2023-04-14T13:27:36.007Z,100241.41
2023-04-14T13:30:21.289Z,100232.13
2023-04-14T13:33:06.964Z,100232.94
2023-04-14T13:35:53.187Z,100232.03
2023-04-14T13:38:38.808Z,100232.28
2023-04-14T13:41:24.681Z,100230.03
2023-04-14T13:44:10.224Z,100234.34
2023-04-14T13:46:56.247Z,100238.81
2023-04-14T13:49:41.677Z,100237.78
2023-04-14T13:52:26.956Z,100237.06
2023-04-14T13:55:12.618Z,100235.69
2023-04-14T13:57:58.183Z,100248.44
2023-04-14T14:00:43.627Z,100253.31
2023-04-14T14:03:30.751Z,100248.03
2023-04-14T14:06:19.041Z,100252.66
2023-04-14T14:09:06.462Z,100243.66
2023-04-14T14:11:52.132Z,100249.06
2023-04-14T14:14:38.130Z,100257.78
2023-04-14T14:17:24.430Z,100253.59
2023-04-14T14:20:10.733Z,100252.09
2023-04-14T14:22:56.183Z,100252.44
2023-04-14T14:25:42.253Z,100260.56
2023-04-14T14:28:27.785Z,100255.66
2023-04-14T14:31:14.966Z,100262.41
2023-04-14T14:34:00.874Z,100260.59
2023-04-14T14:36:49.542Z,100262.81
2023-04-14T14:39:34.893Z,100262.72
2023-04-14T14:42:20.337Z,100265.50
2023-04-14T14:45:09.499Z,100270.69
2023-04-14T14:47:57.740Z,100277.22
2023-04-14T14:50:44.394Z,100274.25
2023-04-14T14:53:31.869Z,100280.56
2023-04-14T14:56:18.456Z,100285.44
2023-04-14T14:59:04.242Z,100285.31
2023-04-14T15:01:49.713Z,100285.69
2023-04-14T15:04:35.452Z,100293.09
2023-04-14T15:07:20.912Z,100299.91
2023-04-14T15:10:07.334Z,100302.03
2023-04-14T15:12:54.038Z,100311.41
2023-04-14T15:15:39.697Z,100314.78
2023-04-14T15:18:25.071Z,100315.50
2023-04-14T15:21:13.588Z,100307.75
2023-04-14T15:23:59.969Z,100318.13
2023-04-14T15:26:45.922Z,100327.94
2023-04-14T15:29:31.708Z,100327.63
2023-04-14T15:32:17.423Z,100334.72
2023-04-14T15:35:02.994Z,100339.56
2023-04-14T15:37:48.660Z,100340.41
2023-04-14T15:40:33.871Z,100346.22
2023-04-14T15:43:19.229Z,100334.09
2023-04-14T15:46:04.605Z,100336.91
2023-04-14T15:48:52.667Z,100356.13
2023-04-14T15:51:43.422Z,100345.56
2023-04-14T15:54:30.054Z,100349.72
2023-04-14T15:57:16.883Z,100343.34
2023-04-14T16:00:04.912Z,100354.13
2023-04-14T16:02:57.748Z,100353.56
2023-04-14T16:05:43.013Z,100359.34
2023-04-14T16:08:28.982Z,100362.16
2023-04-14T16:11:18.191Z,100359.81
2023-04-14T16:14:04.182Z,100358.25
2023-04-14T16:16:49.760Z,100360.16
2023-04-14T16:19:34.991Z,100358.03
2023-04-14T16:22:20.502Z,100363.31
2023-04-14T16:25:07.089Z,100367.91
2023-04-14T16:27:53.607Z,100369.59
2023-04-14T16:30:39.292Z,100368.13
2023-04-14T16:33:24.906Z,100377.28
2023-04-14T16:36:10.268Z,100386.31
2023-04-14T16:38:55.562Z,100396.88
2023-04-14T16:41:41.120Z,100386.47
2023-04-14T16:44:26.840Z,100399.75
2023-04-14T16:47:12.083Z,100397.22
2023-04-14T16:49:57.541Z,100408.59
2023-04-14T16:52:43.024Z,100408.66
2023-04-14T16:55:29.092Z,100405.28
2023-04-14T16:58:14.881Z,100409.47
2023-04-14T17:01:01.363Z,100418.63
2023-04-14T17:03:47.054Z,100419.03
2023-04-14T17:06:32.812Z,100425.47
2023-04-14T17:09:18.291Z,100429.75
2023-04-14T17:12:07.079Z,100436.53
2023-04-14T17:14:52.745Z,100450.19
2023-04-14T17:17:38.115Z,100449.50
2023-04-14T17:20:23.500Z,100455.50
2023-04-14T17:23:09.532Z,100459.63
2023-04-14T17:25:56.136Z,100460.34
2023-04-14T17:28:41.903Z,100474.59
2023-04-14T17:31:27.667Z,100475.81
2023-04-14T17:34:13.110Z,100478.50
2023-04-14T17:36:59.846Z,100478.66
2023-04-14T17:39:45.990Z,100489.31
2023-04-14T17:42:32.411Z,100498.19
2023-04-14T17:45:22.949Z,100504.34
2023-04-14T17:48:09.439Z,100502.59
2023-04-14T17:50:55.204Z,100516.41
2023-04-14T17:53:41.632Z,100513.78
2023-04-14T17:56:27.915Z,100519.84
2023-04-14T17:59:13.346Z,100519.84
2023-04-14T18:01:58.896Z,100526.81
2023-04-14T18:04:44.705Z,100532.06
2023-04-14T18:07:31.340Z,100531.31
2023-04-14T18:10:18.020Z,100540.91
2023-04-14T18:13:03.546Z,100553.13
2023-04-14T18:15:49.952Z,100554.06
2023-04-14T18:18:35.554Z,100555.81
2023-04-14T18:21:21.097Z,100557.63
2023-04-14T18:26:57.251Z,100557.69
2023-04-14T18:29:42.809Z,100575.94
2023-04-14T18:32:30.229Z,100568.13
2023-04-14T18:35:16.014Z,100581.19
2023-04-14T18:38:01.825Z,100583.78
2023-04-14T18:40:50.600Z,100582.91
2023-04-14T18:43:36.187Z,100589.00
2023-04-14T18:46:21.937Z,100588.16
2023-04-14T18:49:07.537Z,100596.88
2023-04-14T18:51:53.900Z,100602.13
2023-04-14T18:54:39.548Z,100610.88
2023-04-14T18:57:25.366Z,100621.28
2023-04-14T19:00:13.464Z,100623.03
2023-04-14T19:02:59.222Z,100623.06
2023-04-14T19:05:45.002Z,100643.03
2023-04-14T19:08:30.689Z,100636.06
2023-04-14T19:11:16.245Z,100639.53
2023-04-14T19:14:05.799Z,100644.72
2023-04-14T19:16:51.693Z,100648.19
2023-04-14T19:19:37.068Z,100650.78
2023-04-14T19:22:22.455Z,100658.59
2023-04-14T19:25:08.731Z,100665.50
2023-04-14T19:27:53.913Z,100669.81
2023-04-14T19:30:39.444Z,100672.38
2023-04-14T19:33:26.821Z,100674.97
2023-04-14T19:36:14.232Z,100691.41
2023-04-14T19:39:00.287Z,100700.06
2023-04-14T19:41:46.097Z,100700.91
2023-04-14T19:44:32.324Z,100704.41
2023-04-14T19:47:17.774Z,100707.88
2023-04-14T19:50:04.469Z,100702.69
2023-04-14T19:52:52.042Z,100703.50
2023-04-14T19:55:37.896Z,100709.53
2023-04-14T19:58:24.808Z,100715.50
2023-04-14T20:01:11.402Z,100728.41
2023-04-14T20:04:05.457Z,100727.50
2023-04-14T20:06:57.282Z,100739.53
2023-04-14T20:09:46.725Z,100751.56
2023-04-14T20:12:32.477Z,100757.59
2023-04-14T20:15:18.318Z,100762.72
2023-04-14T20:18:04.748Z,100760.03
2023-04-14T20:20:50.471Z,100764.31
2023-04-14T20:23:35.697Z,100767.69
2023-04-14T20:26:21.601Z,100779.75
2023-04-14T20:29:06.797Z,100784.97
2023-04-14T20:31:53.548Z,100788.34
2023-04-14T20:34:39.562Z,100787.44
2023-04-14T20:37:25.193Z,100783.88
2023-04-14T20:40:10.883Z,100797.66
2023-04-14T20:42:56.550Z,100797.53
2023-04-14T20:45:42.055Z,100809.50
2023-04-14T20:48:27.639Z,100811.16
2023-04-14T20:51:13.783Z,100810.28
2023-04-14T20:53:59.108Z,100816.25
2023-04-14T20:56:45.066Z,100818.03
2023-04-14T20:59:30.540Z,100828.47
2023-04-14T21:02:16.654Z,100827.66
2023-04-14T21:05:02.267Z,100833.69
2023-04-14T21:07:47.974Z,100840.50
2023-04-14T21:10:33.772Z,100839.59
2023-04-14T21:15:26.654Z,100842.13
2023-04-14T21:16:24.598Z,100844.75
2023-04-14T21:19:10.488Z,100849.09
2023-04-14T21:21:56.509Z,100858.63
2023-04-14T21:24:46.798Z,100855.13
2023-04-14T21:27:32.482Z,100869.78
2023-04-14T21:30:18.170Z,100868.06
2023-04-14T21:33:06.903Z,100868.84
2023-04-14T21:35:57.126Z,100877.34
2023-04-14T21:38:42.398Z,100890.13
2023-04-14T21:41:27.707Z,100893.41
2023-04-14T21:44:15.705Z,100899.22
2023-04-14T21:47:01.417Z,100899.13
2023-04-14T21:49:47.035Z,100907.75
2023-04-14T21:52:32.523Z,100906.75
2023-04-14T21:55:17.974Z,100921.31
2023-04-14T21:58:04.725Z,100922.09
2023-04-14T22:00:53.717Z,100925.34
2023-04-14T22:03:41.290Z,100931.25
2023-04-14T22:06:30.061Z,100938.81
2023-04-14T22:09:15.820Z,100934.44
2023-04-14T22:12:01.281Z,100934.34
2023-04-14T22:14:46.914Z,100940.31
2023-04-14T22:17:32.988Z,100948.88
2023-04-14T22:20:18.323Z,100950.63
2023-04-14T22:23:03.905Z,100961.78
2023-04-14T22:25:49.304Z,100953.13
2023-04-14T22:28:34.585Z,100958.22
2023-04-14T22:31:20.096Z,100956.31
2023-04-14T22:34:05.435Z,100962.28
2023-04-14T22:36:51.366Z,100956.09
2023-04-14T22:39:36.939Z,100971.50
2023-04-14T22:42:22.554Z,100972.19
2023-04-14T22:45:08.378Z,100973.72
2023-04-14T22:47:53.730Z,100986.63
2023-04-14T22:50:39.426Z,100984.00
2023-04-14T22:53:24.939Z,100991.88
2023-04-14T22:56:10.369Z,100990.22
2023-04-14T22:58:59.565Z,100997.13
2023-04-14T23:01:44.848Z,100993.59
2023-04-14T23:04:31.556Z,101002.19
2023-04-14T23:07:16.886Z,101015.09
2023-04-14T23:10:02.308Z,101015.78
2023-04-14T23:12:47.795Z,101022.44
2023-04-14T23:15:33.282Z,101023.94
2023-04-14T23:18:19.336Z,101022.66
2023-04-14T23:21:10.111Z,101034.41
2023-04-14T23:23:56.001Z,101039.44
2023-04-14T23:26:41.859Z,101053.28
2023-04-14T23:29:27.661Z,101058.38
2023-04-14T23:32:13.400Z,101065.13
2023-04-14T23:34:58.841Z,101068.41
2023-04-14T23:37:44.792Z,101076.00
2023-04-14T23:40:32.227Z,101075.72
2023-04-14T23:43:17.860Z,101090.22
2023-04-14T23:46:03.399Z,101096.22
2023-04-14T23:48:49.568Z,101104.91
2023-04-14T23:51:35.147Z,101107.50
2023-04-14T23:54:20.925Z,101115.28
2023-04-14T23:57:06.759Z,101116.91
2023-04-14T23:59:53.002Z,101125.63
